Time;durP1;ratioP1;P1;durP2;ratioP2;P2;SDS_P1;SDS_P2;PMS_P1;PMS_P2;Temp;Humidity;BMP_temperature;BMP_pressure;BME280_temperature;BME280_humidity;BME280_pressure;Samples;Min_cycle;Max_cycle;Signal;HPM_P1;HPM_P2
2022/04/13 00:01:02;;;;;;;6.78;1.73;;;13.00;99.90;;;;;;5074336;28;20082;-76
2022/04/13 00:03:28;;;;;;;3.72;1.50;;;12.90;99.90;;;;;;5074558;28;20469;-76
2022/04/13 00:05:55;;;;;;;7.78;2.30;;;12.90;99.90;;;;;;5074233;28;20075;-76
2022/04/13 00:08:20;;;;;;;5.50;1.63;;;12.70;99.90;;;;;;5074494;28;20096;-76
2022/04/13 00:10:46;;;;;;;6.93;2.22;;;12.70;99.90;;;;;;5074145;28;20067;-75
2022/04/13 00:13:13;;;;;;;2.47;1.55;;;12.70;99.90;;;;;;5074339;28;20472;-75
2022/04/13 00:15:39;;;;;;;7.55;1.88;;;12.60;99.90;;;;;;5074243;28;20044;-75
2022/04/13 00:18:06;;;;;;;5.25;1.65;;;12.60;99.90;;;;;;5074506;28;20052;-75
2022/04/13 00:20:32;;;;;;;7.45;1.83;;;12.60;99.90;;;;;;5073861;28;20020;-75
2022/04/13 00:22:58;;;;;;;8.10;1.83;;;12.50;99.90;;;;;;5074021;28;20554;-75
2022/04/13 00:25:23;;;;;;;8.27;2.45;;;12.40;99.90;;;;;;5073881;28;20051;-75
2022/04/13 00:27:49;;;;;;;5.55;2.20;;;12.40;99.90;;;;;;5055975;28;20016;-75
2022/04/13 00:30:14;;;;;;;7.25;1.83;;;12.40;99.90;;;;;;5073748;28;20036;-75
2022/04/13 00:32:40;;;;;;;9.07;1.83;;;12.30;99.90;;;;;;5073658;28;20029;-75
2022/04/13 00:35:06;;;;;;;8.57;2.28;;;12.30;99.90;;;;;;5073763;28;20017;-76
2022/04/13 00:37:32;;;;;;;7.00;2.08;;;12.20;99.90;;;;;;5073867;28;20482;-76
2022/04/13 00:39:58;;;;;;;7.53;1.75;;;12.10;99.90;;;;;;5055851;28;20028;-76
2022/04/13 00:42:24;;;;;;;4.40;1.67;;;12.10;99.90;;;;;;5055684;28;20028;-75
2022/04/13 00:44:50;;;;;;;3.60;1.20;;;12.00;99.90;;;;;;5074086;28;20023;-75
2022/04/13 00:47:15;;;;;;;4.60;2.05;;;11.90;99.90;;;;;;5073602;28;20025;-75
2022/04/13 00:49:42;;;;;;;10.73;1.92;;;11.90;99.90;;;;;;5073932;28;20032;-76
2022/04/13 00:52:08;;;;;;;7.28;1.95;;;11.90;99.90;;;;;;5073594;28;20546;-76
2022/04/13 00:54:35;;;;;;;7.75;1.75;;;11.90;99.90;;;;;;5073585;28;20025;-76
2022/04/13 00:57:09;;;;;;;5.32;2.50;;;12.40;99.90;;;;;;5073407;28;20108;-75
2022/04/13 00:59:39;;;;;;;11.85;3.22;;;11.80;99.90;;;;;;5073832;28;20389;-76
2022/04/13 01:02:08;;;;;;;7.63;3.20;;;11.80;99.90;;;;;;5073707;28;20024;-76
2022/04/13 01:04:35;;;;;;;;;;;11.70;99.90;;;;;;5074559;28;20048;-76
2022/04/13 01:07:02;;;;;;;3.95;1.90;;;11.70;99.90;;;;;;5074021;28;20291;-77
2022/04/13 01:09:30;;;;;;;5.97;2.35;;;11.60;99.90;;;;;;5073239;28;20166;-77
2022/04/13 01:11:56;;;;;;;8.65;2.75;;;11.60;99.90;;;;;;5073534;28;20024;-77
2022/04/13 01:14:21;;;;;;;7.25;2.05;;;11.60;99.90;;;;;;5073287;28;20466;-77
2022/04/13 01:16:47;;;;;;;5.03;1.95;;;11.60;99.90;;;;;;5073534;28;20392;-77
2022/04/13 01:19:16;;;;;;;8.13;3.38;;;11.60;99.90;;;;;;5055269;28;20554;-77
2022/04/13 01:22:03;;;;;;;13.85;2.97;;;11.70;99.90;;;;;;5073160;28;20028;-77
2022/04/13 01:24:29;;;;;;;7.53;2.00;;;11.60;99.90;;;;;;5073701;28;20032;-77
2022/04/13 01:26:55;;;;;;;3.45;2.00;;;11.70;99.90;;;;;;5055544;28;20024;-76
2022/04/13 01:29:21;;;;;;;5.15;2.28;;;11.70;99.90;;;;;;5055173;28;20031;-76
2022/04/13 01:31:48;;;;;;;8.18;3.35;;;11.70;99.90;;;;;;5055092;28;20025;-77
2022/04/13 01:34:13;;;;;;;8.00;2.15;;;11.70;99.90;;;;;;5073128;28;20024;-77
2022/04/13 01:36:39;;;;;;;12.43;3.40;;;11.80;99.90;;;;;;5073020;28;20074;-77
2022/04/13 01:39:06;;;;;;;7.20;2.20;;;11.80;99.90;;;;;;5073067;28;20082;-77
2022/04/13 01:41:32;;;;;;;6.18;2.08;;;12.40;99.90;;;;;;5074347;28;20020;-77
2022/04/13 01:43:58;;;;;;;6.13;1.95;;;11.90;99.90;;;;;;5077023;28;20028;-77
2022/04/13 01:46:24;;;;;;;5.55;2.10;;;11.90;99.90;;;;;;5077329;28;20492;-77
2022/04/13 01:48:49;;;;;;;8.95;2.58;;;11.90;99.90;;;;;;5076952;28;20035;-77
2022/04/13 01:51:17;;;;;;;6.38;1.95;;;12.00;99.90;;;;;;5059096;28;20500;-77
2022/04/13 01:53:43;;;;;;;5.40;2.10;;;12.00;99.90;;;;;;5077335;28;20549;-77
2022/04/13 01:56:08;;;;;;;9.77;2.65;;;12.20;99.90;;;;;;5077018;28;20407;-77
2022/04/13 01:58:34;;;;;;;4.38;2.28;;;12.00;99.90;;;;;;5076798;28;20017;-77
2022/04/13 02:01:00;;;;;;;5.75;2.03;;;12.00;99.90;;;;;;5077106;28;20024;-77
2022/04/13 02:03:26;;;;;;;8.57;2.78;;;12.00;99.90;;;;;;5058792;28;20024;-77
2022/04/13 02:05:53;;;;;;;11.48;2.42;;;12.00;99.90;;;;;;5058654;28;20046;-77
2022/04/13 02:08:20;;;;;;;5.05;2.00;;;12.00;99.90;;;;;;5076848;28;20469;-76
2022/04/13 02:10:46;;;;;;;5.15;1.65;;;12.00;99.90;;;;;;5058403;28;20025;-77
2022/04/13 02:13:12;;;;;;;8.95;2.88;;;12.10;99.90;;;;;;5058517;28;20017;-77
2022/04/13 02:15:38;;;;;;;5.28;2.72;;;12.10;99.90;;;;;;5077034;28;20039;-77
2022/04/13 02:18:05;;;;;;;7.13;2.33;;;12.10;99.90;;;;;;5058453;28;20023;-77
2022/04/13 02:20:31;;;;;;;6.68;2.10;;;12.10;99.90;;;;;;5058050;28;20025;-77
2022/04/13 02:22:56;;;;;;;5.22;2.17;;;12.20;99.90;;;;;;5076437;28;20366;-76
2022/04/13 02:25:22;;;;;;;3.95;1.75;;;12.20;99.90;;;;;;5076286;28;20017;-76
2022/04/13 02:27:47;;;;;;;6.55;1.98;;;12.20;99.90;;;;;;5058995;28;20481;-77
2022/04/13 02:30:13;;;;;;;9.35;2.13;;;12.20;99.90;;;;;;5076115;28;20017;-77
2022/04/13 02:32:43;;;;;;;5.50;1.98;;;12.20;99.90;;;;;;5076373;28;20025;-76
2022/04/13 02:35:09;;;;;;;6.65;2.35;;;12.20;99.90;;;;;;5058180;28;20025;-76
2022/04/13 02:37:34;;;;;;;9.68;2.92;;;12.20;99.90;;;;;;5075973;28;20029;-77
2022/04/13 02:40:00;;;;;;;8.13;1.95;;;12.20;99.90;;;;;;5076049;28;20017;-77
2022/04/13 02:42:31;;;;;;;5.32;1.85;;;12.20;99.90;;;;;;5058004;28;20111;-77
2022/04/13 02:44:57;;;;;;;11.35;3.42;;;12.20;99.90;;;;;;5076440;28;20024;-77
2022/04/13 02:47:22;;;;;;;5.97;1.67;;;12.20;99.90;;;;;;5075851;28;20370;-76
2022/04/13 02:49:48;;;;;;;9.75;2.83;;;12.20;99.90;;;;;;5058118;28;20489;-77
2022/04/13 02:52:13;;;;;;;5.50;2.28;;;12.20;99.90;;;;;;5057261;28;20028;-77
2022/04/13 02:54:39;;;;;;;6.85;2.50;;;12.10;99.90;;;;;;5057791;28;20052;-76
2022/04/13 02:57:04;;;;;;;8.15;3.10;;;12.20;99.90;;;;;;5075648;28;20020;-77
2022/04/13 02:59:30;;;;;;;4.60;2.78;;;12.20;99.90;;;;;;5075899;28;20031;-77
2022/04/13 03:01:55;;;;;;;9.98;3.42;;;12.20;99.90;;;;;;5057542;28;20036;-77
2022/04/13 03:04:21;;;;;;;7.50;2.78;;;12.30;99.90;;;;;;5075496;28;20389;-77
2022/04/13 03:06:47;;;;;;;9.00;2.78;;;12.30;99.90;;;;;;5057490;28;20040;-77
2022/04/13 03:09:12;;;;;;;8.00;3.08;;;12.30;99.90;;;;;;5057474;28;20025;-77
2022/04/13 03:11:40;;;;;;;8.18;2.97;;;12.40;99.90;;;;;;5075475;28;20032;-77
2022/04/13 03:14:06;;;;;;;9.57;3.22;;;12.40;99.90;;;;;;5057305;28;20103;-77
2022/04/13 03:16:31;;;;;;;9.77;3.05;;;12.40;99.90;;;;;;5075200;28;20533;-77
2022/04/13 03:18:57;;;;;;;9.77;2.88;;;12.40;99.90;;;;;;5075293;28;20020;-77
2022/04/13 03:21:23;;;;;;;13.35;2.95;;;12.40;99.90;;;;;;5075419;28;20107;-78
2022/04/13 03:23:49;;;;;;;8.90;2.50;;;12.50;99.90;;;;;;5075420;28;20016;-77
2022/04/13 03:26:15;;;;;;;8.80;2.92;;;12.50;99.90;;;;;;5075412;28;20090;-77
2022/04/13 03:28:40;;;;;;;6.13;3.13;;;12.50;99.90;;;;;;5057156;28;20020;-78
2022/04/13 03:31:06;;;;;;;8.27;3.00;;;12.40;99.90;;;;;;5074914;28;20484;-78
2022/04/13 03:33:31;;;;;;;7.28;3.03;;;12.50;99.90;;;;;;5075016;28;20023;-77
2022/04/13 03:35:57;;;;;;;9.77;3.65;;;12.50;99.90;;;;;;5074979;28;20020;-77
2022/04/13 03:38:23;;;;;;;7.35;3.58;;;12.50;99.90;;;;;;5056896;28;20028;-77
2022/04/13 03:40:48;;;;;;;10.82;3.30;;;12.50;99.90;;;;;;5074826;28;20035;-77
2022/04/13 03:43:14;;;;;;;10.18;3.60;;;12.50;99.90;;;;;;5075096;28;20099;-77
2022/04/13 03:45:39;;;;;;;7.97;3.05;;;12.40;99.90;;;;;;5056803;28;20016;-77
2022/04/13 03:48:05;;;;;;;9.77;3.20;;;12.50;99.90;;;;;;5074596;28;20025;-77
2022/04/13 03:50:31;;;;;;;9.48;3.33;;;12.40;99.90;;;;;;5056577;28;20028;-77
2022/04/13 03:53:00;;;;;;;12.13;3.65;;;12.40;99.90;;;;;;5056569;28;20082;-77
2022/04/13 03:55:25;;;;;;;8.07;3.05;;;12.40;99.90;;;;;;5074562;28;20509;-77
2022/04/13 03:57:51;;;;;;;10.52;3.30;;;12.40;99.90;;;;;;5056432;28;20067;-76
2022/04/13 04:00:17;;;;;;;8.52;3.15;;;12.40;99.90;;;;;;5056439;28;20378;-77
2022/04/13 04:02:43;;;;;;;7.97;3.13;;;12.30;99.90;;;;;;5074455;28;20351;-77
2022/04/13 04:05:10;;;;;;;7.28;3.08;;;12.30;99.90;;;;;;5073474;28;20028;-77
2022/04/13 04:07:36;;;;;;;7.30;3.25;;;12.20;99.90;;;;;;5074166;28;20036;-77
2022/04/13 04:10:03;;;;;;;8.30;3.25;;;12.20;99.90;;;;;;5056183;28;20020;-76
2022/04/13 04:12:29;;;;;;;10.75;3.78;;;12.20;99.90;;;;;;5073846;28;20024;-77
2022/04/13 04:15:02;;;;;;;11.90;3.90;;;12.20;99.90;;;;;;5074225;28;20386;-76
2022/04/13 04:17:27;;;;;;;9.48;3.90;;;12.10;99.90;;;;;;5074008;28;20020;-77
2022/04/13 04:19:53;;;;;;;15.88;4.13;;;12.10;99.90;;;;;;5056074;28;20390;-76
2022/04/13 04:22:18;;;;;;;7.85;3.85;;;12.10;99.90;;;;;;5073765;28;20504;-77
2022/04/13 04:24:44;;;;;;;9.98;3.88;;;12.10;99.90;;;;;;5074245;28;20028;-77
2022/04/13 04:27:10;;;;;;;7.85;3.50;;;12.00;99.90;;;;;;5056831;28;20382;-77
2022/04/13 04:29:35;;;;;;;11.55;4.35;;;12.10;99.90;;;;;;5073784;28;20031;-76
2022/04/13 04:32:02;;;;;;;12.93;4.72;;;12.00;99.90;;;;;;5073707;28;20472;-77
2022/04/13 04:34:27;;;;;;;11.05;4.53;;;12.00;99.90;;;;;;5073980;28;20024;-76
2022/04/13 04:36:53;;;;;;;8.48;3.92;;;12.00;99.90;;;;;;5073571;28;20034;-76
2022/04/13 04:39:19;;;;;;;14.27;4.07;;;12.00;99.90;;;;;;5073688;28;20074;-77
2022/04/13 04:41:44;;;;;;;10.20;4.53;;;12.00;99.90;;;;;;5073640;28;20074;-77
2022/04/13 04:44:10;;;;;;;12.52;4.18;;;12.00;99.90;;;;;;5055733;28;20082;-77
2022/04/13 04:46:37;;;;;;;7.47;4.05;;;12.00;99.90;;;;;;5074292;28;20103;-77
2022/04/13 04:49:04;;;;;;;14.20;4.25;;;12.00;99.90;;;;;;5073816;28;20025;-77
2022/04/13 04:51:32;;;;;;;15.20;5.07;;;12.00;99.90;;;;;;5055544;28;20115;-77
2022/04/13 04:53:59;;;;;;;;;;;12.00;99.90;;;;;;5074185;28;20033;-78
2022/04/13 04:56:28;;;;;;;7.45;2.85;;;12.00;99.90;;;;;;5073493;28;19908;-78
2022/04/13 04:58:54;;;;;;;;;;;12.00;99.90;;;;;;5073868;28;20017;-77
2022/04/13 05:01:19;;;;;;;8.05;3.63;;;12.00;99.90;;;;;;5073354;28;19927;-77
2022/04/13 05:03:48;;;;;;;10.77;4.40;;;12.00;99.90;;;;;;5073832;28;20021;-77
2022/04/13 05:06:22;;;;;;;16.63;3.50;;;12.10;99.90;;;;;;5073557;28;20023;-77
2022/04/13 05:08:49;;;;;;;11.07;3.80;;;12.10;99.90;;;;;;5074028;28;20031;-77
2022/04/13 05:11:15;;;;;;;10.73;4.00;;;12.10;99.90;;;;;;5055653;28;20017;-77
2022/04/13 05:13:41;;;;;;;11.05;4.50;;;12.10;99.90;;;;;;5073904;28;20023;-77
2022/04/13 05:16:07;;;;;;;10.02;3.92;;;12.10;99.90;;;;;;5055303;28;20171;-77
2022/04/13 05:18:36;;;;;;;9.52;3.95;;;12.10;99.90;;;;;;5073278;28;20096;-77
2022/04/13 05:21:03;;;;;;;8.73;3.25;;;12.10;99.90;;;;;;5073093;28;20028;-77
2022/04/13 05:23:28;;;;;;;9.15;4.43;;;12.10;99.90;;;;;;5073509;28;20103;-77
2022/04/13 05:25:54;;;;;;;9.43;4.00;;;12.10;99.90;;;;;;5073115;28;20063;-77
2022/04/13 05:28:19;;;;;;;13.13;5.05;;;12.10;99.90;;;;;;5073139;28;20029;-77
2022/04/13 05:30:45;;;;;;;13.18;4.82;;;12.20;99.90;;;;;;5073411;28;20040;-77
2022/04/13 05:33:12;;;;;;;14.68;4.97;;;12.20;99.90;;;;;;5055320;28;20381;-78
2022/04/13 05:35:38;;;;;;;11.25;4.90;;;12.30;99.90;;;;;;5073867;28;20020;-78
2022/04/13 05:38:05;;;;;;;9.95;4.85;;;13.30;99.90;;;;;;5074315;28;20039;-77
2022/04/13 05:40:31;;;;;;;11.13;4.80;;;12.40;99.90;;;;;;5073114;28;20440;-77
2022/04/13 05:42:56;;;;;;;11.60;5.30;;;12.50;99.90;;;;;;5055268;28;20009;-77
2022/04/13 05:45:22;;;;;;;15.40;5.07;;;12.60;99.90;;;;;;5054908;28;20032;-76
2022/04/13 05:47:48;;;;;;;9.90;4.82;;;12.60;99.90;;;;;;5054949;28;20024;-76
2022/04/13 05:50:14;;;;;;;12.32;5.65;;;12.70;99.90;;;;;;5072841;28;20055;-77
2022/04/13 05:52:41;;;;;;;12.18;5.35;;;12.60;99.90;;;;;;5073295;28;20416;-76
2022/04/13 05:55:07;;;;;;;12.43;4.93;;;12.90;99.90;;;;;;5072714;28;20028;-76
2022/04/13 05:57:33;;;;;;;14.38;5.57;;;12.90;99.90;;;;;;5054606;28;20035;-76
2022/04/13 05:59:59;;;;;;;17.00;5.65;;;12.90;99.90;;;;;;5072658;28;20025;-77
2022/04/13 06:02:25;;;;;;;15.13;5.25;;;13.20;99.90;;;;;;5072607;28;20025;-77
2022/04/13 06:04:50;;;;;;;14.73;5.47;;;13.10;99.90;;;;;;5072681;28;20382;-77
2022/04/13 06:07:17;;;;;;;19.77;5.72;;;13.20;99.90;;;;;;5054737;28;20086;-77
2022/04/13 06:09:42;;;;;;;11.95;5.45;;;13.30;99.90;;;;;;5072932;28;20017;-76
2022/04/13 06:12:08;;;;;;;13.77;5.15;;;13.50;99.90;;;;;;5054638;28;20051;-76
2022/04/13 06:14:34;;;;;;;10.48;4.35;;;13.60;99.90;;;;;;5072986;28;20036;-77
2022/04/13 06:17:00;;;;;;;11.15;5.05;;;13.70;99.90;;;;;;5054484;28;20027;-77
2022/04/13 06:19:25;;;;;;;8.95;4.43;;;13.80;99.90;;;;;;5054609;28;20482;-77
2022/04/13 06:21:51;;;;;;;10.45;3.45;;;13.90;99.90;;;;;;5054412;28;20120;-76
2022/04/13 06:24:16;;;;;;;9.45;4.38;;;14.00;99.90;;;;;;5072516;28;20025;-76
2022/04/13 06:26:42;;;;;;;10.13;3.35;;;14.10;99.90;;;;;;5054603;28;20405;-77
2022/04/13 06:29:08;;;;;;;9.57;3.25;;;14.20;99.90;;;;;;5058046;28;20077;-77
2022/04/13 06:31:33;;;;;;;7.40;2.83;;;14.30;99.90;;;;;;5058091;28;20021;-76
2022/04/13 06:33:59;;;;;;;6.70;3.20;;;14.50;99.90;;;;;;5075974;28;20031;-77
2022/04/13 06:36:25;;;;;;;9.95;3.20;;;14.40;99.90;;;;;;5076132;28;20024;-76
2022/04/13 06:38:50;;;;;;;10.70;3.08;;;14.80;99.90;;;;;;5075975;28;20100;-77
2022/04/13 06:41:16;;;;;;;7.38;2.90;;;14.50;99.90;;;;;;5057842;28;20507;-77
2022/04/13 06:43:41;;;;;;;8.32;2.95;;;14.50;99.90;;;;;;5075708;28;20102;-77
2022/04/13 06:46:08;;;;;;;8.05;2.50;;;14.40;99.90;;;;;;5075759;28;20573;-76
2022/04/13 06:48:34;;;;;;;5.60;2.50;;;14.50;99.90;;;;;;5057850;28;20028;-77
2022/04/13 06:51:00;;;;;;;9.25;2.92;;;14.60;99.90;;;;;;5057593;28;20543;-76
2022/04/13 06:53:26;;;;;;;9.30;2.85;;;14.60;99.90;;;;;;5057650;28;20104;-76
2022/04/13 06:55:52;;;;;;;7.65;3.05;;;14.60;99.90;;;;;;5075606;28;20027;-76
2022/04/13 06:58:21;;;;;;;9.50;2.97;;;15.10;99.90;;;;;;5075479;28;20044;-76
2022/04/13 07:00:49;;;;;;;8.60;2.53;;;14.70;99.90;;;;;;5075411;28;20545;-76
2022/04/13 07:03:15;;;;;;;9.32;2.28;;;14.70;99.90;;;;;;5075455;28;20027;-76
2022/04/13 07:05:40;;;;;;;15.70;3.17;;;14.80;99.90;;;;;;5075353;28;20458;-77
2022/04/13 07:08:08;;;;;;;7.40;2.20;;;14.90;99.90;;;;;;5075777;28;20052;-77
2022/04/13 07:10:34;;;;;;;6.80;3.22;;;15.00;99.90;;;;;;5057451;28;20112;-76
2022/04/13 07:13:00;;;;;;;6.22;2.15;;;14.90;99.90;;;;;;5075311;28;20081;-76
2022/04/13 07:15:26;;;;;;;5.10;1.70;;;14.80;99.90;;;;;;5057316;28;20021;-76
2022/04/13 07:17:52;;;;;;;5.05;1.65;;;14.80;99.90;;;;;;5075116;28;20025;-73
2022/04/13 07:20:18;;;;;;;9.23;2.72;;;14.80;99.90;;;;;;5116208;22;20170;-75
2022/04/13 07:22:49;;;;;;;3.67;1.30;;;17.90;99.90;;;;;;5036112;28;20489;-77
2022/04/13 07:25:17;;;;;;;7.05;2.10;;;14.90;99.90;;;;;;5054966;28;20027;-76
2022/04/13 07:27:42;;;;;;;8.70;2.47;;;14.90;99.90;;;;;;5055026;28;20091;-76
2022/04/13 07:30:08;;;;;;;5.20;2.33;;;15.10;99.90;;;;;;5055343;28;20052;-76
2022/04/13 07:32:34;;;;;;;8.20;2.22;;;15.10;99.90;;;;;;5054939;28;20049;-76
2022/04/13 07:35:00;;;;;;;7.93;2.08;;;15.10;99.90;;;;;;5054921;28;20033;-76
2022/04/13 07:37:26;;;;;;;5.43;2.10;;;15.20;99.90;;;;;;5055009;28;20359;-76
2022/04/13 07:39:52;;;;;;;5.70;2.45;;;15.20;99.90;;;;;;5035811;28;20112;-76
2022/04/13 07:42:26;;;;;;;4.75;2.38;;;15.40;99.90;;;;;;5054694;28;20021;-76
2022/04/13 07:44:53;;;;;;;5.70;1.83;;;15.50;99.90;;;;;;5036655;28;20017;-75
2022/04/13 07:47:20;;;;;;;6.93;2.08;;;15.50;99.90;;;;;;5036518;28;20022;-75
2022/04/13 07:49:47;;;;;;;10.73;2.10;;;15.40;99.90;;;;;;5054655;28;20029;-74
2022/04/13 07:52:13;;;;;;;6.43;2.55;;;15.40;99.90;;;;;;5054330;28;20045;-72
2022/04/13 07:54:39;;;;;;;5.53;1.98;;;15.60;99.90;;;;;;5054499;28;20481;-72
2022/04/13 07:57:05;;;;;;;9.05;2.58;;;15.70;99.90;;;;;;5054027;28;20028;-72
2022/04/13 07:59:31;;;;;;;7.70;1.98;;;15.80;99.90;;;;;;5036591;28;20021;-71
2022/04/13 08:02:01;;;;;;;8.38;2.50;;;15.80;99.90;;;;;;5054382;28;20096;-72
2022/04/13 08:04:27;;;;;;;7.90;2.67;;;15.70;99.90;;;;;;5036516;28;20021;-72
2022/04/13 08:06:52;;;;;;;4.25;1.75;;;15.80;99.90;;;;;;5054186;28;20431;-73
2022/04/13 08:09:18;;;;;;;6.72;2.47;;;15.80;99.90;;;;;;5054182;28;20025;-72
2022/04/13 08:11:45;;;;;;;5.40;2.22;;;15.90;99.90;;;;;;5054002;28;20021;-73
2022/04/13 08:14:11;;;;;;;8.70;2.33;;;16.00;99.90;;;;;;5054072;28;20039;-72
2022/04/13 08:16:37;;;;;;;7.47;1.38;;;16.20;99.90;;;;;;5053918;28;20033;-73
2022/04/13 08:19:02;;;;;;;5.18;1.55;;;16.40;99.90;;;;;;5054257;28;20024;-73
2022/04/13 08:21:28;;;;;;;6.43;2.08;;;16.70;99.90;;;;;;5054115;28;20032;-72
2022/04/13 08:23:53;;;;;;;4.63;1.23;;;17.00;99.90;;;;;;5053915;28;20028;-73
2022/04/13 08:26:19;;;;;;;6.82;1.52;;;17.10;99.90;;;;;;5053899;28;20095;-73
2022/04/13 08:28:44;;;;;;;6.40;1.20;;;17.10;99.90;;;;;;5053853;28;20104;-73
2022/04/13 08:31:11;;;;;;;5.82;0.95;;;17.00;99.90;;;;;;5053607;28;20128;-73
2022/04/13 08:33:37;;;;;;;6.60;1.45;;;16.90;99.90;;;;;;5053759;28;20060;-73
2022/04/13 08:36:03;;;;;;;6.70;1.80;;;16.80;99.90;;;;;;5053722;28;20036;-73
2022/04/13 08:38:29;;;;;;;5.25;1.27;;;16.70;99.90;;;;;;5053623;28;20362;-73
2022/04/13 08:41:02;;;;;;;4.07;0.98;;;16.60;99.90;;;;;;5053837;28;20462;-73
2022/04/13 08:43:32;;;;;;;5.90;1.98;;;16.50;99.90;;;;;;5053523;28;20027;-73
2022/04/13 08:45:59;;;;;;;5.90;0.95;;;16.50;99.90;;;;;;5053453;28;20036;-73
2022/04/13 08:48:26;;;;;;;7.20;1.58;;;16.40;99.90;;;;;;5035704;28;20029;-77
2022/04/13 08:51:02;;;;;;;3.63;0.60;;;16.40;99.90;;;;;;5053242;28;20067;-74
2022/04/13 08:53:29;;;;;;;4.13;0.60;;;16.40;99.90;;;;;;5053814;28;20474;-74
2022/04/13 08:55:57;;;;;;;12.43;1.77;;;16.40;99.90;;;;;;5053908;28;20025;-74
2022/04/13 08:58:44;;;;;;;4.53;0.63;;;16.40;99.90;;;;;;5035468;28;20029;-74
2022/04/13 09:01:33;;;;;;;4.90;0.93;;;16.30;99.90;;;;;;5035485;28;20017;-74
2022/04/13 09:04:05;;;;;;;6.30;1.13;;;16.40;99.90;;;;;;5053371;28;20496;-74
2022/04/13 09:06:33;;;;;;;5.05;0.80;;;16.40;99.90;;;;;;5053335;28;20017;-74
2022/04/13 09:09:01;;;;;;;4.37;1.00;;;16.30;99.90;;;;;;5053701;28;20477;-75
2022/04/13 09:11:30;;;;;;;5.72;0.60;;;16.50;99.90;;;;;;5035407;28;20397;-75
2022/04/13 09:13:57;;;;;;;6.97;1.27;;;16.60;99.90;;;;;;5035485;28;20025;-73
2022/04/13 09:16:23;;;;;;;5.55;0.77;;;16.70;99.90;;;;;;5053246;28;20026;-73
2022/04/13 09:18:49;;;;;;;7.53;0.73;;;16.70;99.90;;;;;;5053373;28;20036;-75
2022/04/13 09:21:17;;;;;;;2.53;0.52;;;16.70;99.90;;;;;;5052985;28;20033;-75
2022/04/13 09:23:43;;;;;;;8.40;0.60;;;16.70;99.90;;;;;;5053179;28;20028;-73
2022/04/13 09:26:10;;;;;;;3.20;0.47;;;16.70;99.90;;;;;;5053038;28;20025;-72
2022/04/13 09:28:37;;;;;;;4.07;0.70;;;16.80;99.90;;;;;;5053039;28;20032;-72
2022/04/13 09:31:03;;;;;;;10.77;1.02;;;16.90;99.90;;;;;;5053165;28;20037;-74
2022/04/13 09:33:29;;;;;;;3.05;0.50;;;16.90;99.90;;;;;;5053599;28;20523;-73
2022/04/13 09:35:54;;;;;;;3.92;0.20;;;16.90;99.90;;;;;;5052960;28;20025;-75
2022/04/13 09:38:20;;;;;;;10.23;0.68;;;16.80;99.90;;;;;;5053100;28;20063;-75
2022/04/13 09:40:48;;;;;;;1.70;0.57;;;16.80;99.90;;;;;;5053355;28;20090;-72
2022/04/13 09:43:16;;;;;;;7.90;0.75;;;16.70;99.90;;;;;;5035031;28;20056;-72
2022/04/13 09:45:48;;;;;;;3.53;0.85;;;16.60;99.90;;;;;;5052847;28;20029;-72
2022/04/13 09:48:18;;;;;;;5.53;0.85;;;16.50;99.90;;;;;;5052910;28;20028;-72
2022/04/13 09:50:45;;;;;;;5.13;0.38;;;16.50;99.90;;;;;;5052800;28;20021;-72
2022/04/13 09:53:13;;;;;;;5.28;0.73;;;16.50;99.90;;;;;;5034915;28;20022;-72
2022/04/13 09:55:50;;;;;;;6.07;0.60;;;16.50;99.90;;;;;;5052650;28;20116;-72
2022/04/13 09:58:18;;;;;;;8.93;1.05;;;16.50;99.90;;;;;;5034842;28;20116;-73
2022/04/13 10:00:46;;;;;;;4.03;0.80;;;16.50;99.90;;;;;;5052698;28;20017;-73
2022/04/13 10:03:14;;;;;;;5.88;1.55;;;16.50;99.90;;;;;;5055499;28;20024;-73
2022/04/13 10:05:43;;;;;;;6.15;1.38;;;16.60;99.90;;;;;;5056615;28;20355;-73
2022/04/13 10:08:11;;;;;;;9.40;1.45;;;16.50;99.90;;;;;;5056501;28;20025;-73
2022/04/13 10:10:46;;;;;;;9.75;1.90;;;16.50;99.90;;;;;;5038282;28;20131;-73
2022/04/13 10:13:29;;;;;;;5.97;1.50;;;16.50;99.90;;;;;;5038461;28;20060;-73
2022/04/13 10:15:58;;;;;;;12.30;1.77;;;16.60;99.90;;;;;;5056683;28;20509;-72
2022/04/13 10:18:24;;;;;;;8.15;2.03;;;16.60;99.90;;;;;;5056214;28;20087;-73
2022/04/13 10:20:50;;;;;;;8.90;1.90;;;16.70;99.90;;;;;;5056213;28;20482;-73
2022/04/13 10:23:15;;;;;;;6.40;2.08;;;16.60;99.90;;;;;;5056242;28;20474;-73
2022/04/13 10:25:43;;;;;;;11.48;2.33;;;16.40;99.90;;;;;;5056210;28;20025;-73
2022/04/13 10:28:12;;;;;;;9.73;1.55;;;16.30;99.90;;;;;;5038199;28;20051;-73
2022/04/13 10:30:40;;;;;;;10.57;1.60;;;16.30;99.90;;;;;;5038111;28;20017;-73
2022/04/13 10:33:08;;;;;;;10.43;1.70;;;16.30;99.90;;;;;;5038134;28;20397;-73
2022/04/13 10:35:35;;;;;;;7.17;2.30;;;16.40;99.90;;;;;;5038392;28;20021;-73
2022/04/13 10:38:03;;;;;;;5.05;1.20;;;16.50;99.90;;;;;;5055892;28;20776;-73
2022/04/13 10:40:33;;;;;;;9.98;2.08;;;16.50;99.90;;;;;;5055843;28;20009;-73
2022/04/13 10:43:01;;;;;;;4.88;1.40;;;16.70;99.90;;;;;;5055795;28;20023;-73
2022/04/13 10:45:28;;;;;;;8.02;1.50;;;16.80;99.90;;;;;;5055815;28;20067;-73
2022/04/13 10:48:08;;;;;;;5.75;1.33;;;16.80;99.90;;;;;;5055745;28;20029;-73
2022/04/13 10:50:54;;;;;;;4.78;1.67;;;16.80;99.90;;;;;;5056236;28;20025;-73
2022/04/13 10:53:27;;;;;;;8.55;2.28;;;16.80;99.90;;;;;;5038159;28;20033;-73
2022/04/13 10:55:53;;;;;;;9.00;2.13;;;16.90;99.90;;;;;;5055917;28;20049;-73
2022/04/13 10:58:23;;;;;;;7.90;1.48;;;16.90;99.90;;;;;;5055541;28;20455;-73
2022/04/13 11:00:57;;;;;;;4.78;1.67;;;16.90;99.90;;;;;;5055962;28;20363;-73
2022/04/13 11:03:25;;;;;;;5.10;1.38;;;16.70;99.90;;;;;;5055802;28;20024;-73
2022/04/13 11:05:54;;;;;;;10.50;2.15;;;16.80;99.90;;;;;;5055462;28;20021;-73
2022/04/13 11:08:44;;;;;;;8.93;1.60;;;16.70;99.90;;;;;;5055360;28;20028;-73
2022/04/13 11:11:17;;;;;;;7.55;1.58;;;16.70;99.90;;;;;;5055368;28;20469;-75
2022/04/13 11:13:45;;;;;;;5.18;1.58;;;16.60;99.90;;;;;;5055192;28;20500;-75
2022/04/13 11:16:18;;;;;;;9.30;1.63;;;16.50;99.90;;;;;;5055241;28;20190;-75
2022/04/13 11:19:07;;;;;;;9.85;2.65;;;16.50;99.90;;;;;;5055204;28;20108;-76
2022/04/13 11:21:34;;;;;;;9.43;2.55;;;16.40;99.90;;;;;;5042132;28;20037;-75
2022/04/13 11:24:00;;;;;;;5.65;2.83;;;16.30;99.90;;;;;;5055417;28;20032;-76
2022/04/13 11:26:46;;;;;;;10.20;2.85;;;16.20;99.90;;;;;;5055354;28;20377;-75
2022/04/13 11:29:21;;;;;;;6.32;2.03;;;16.20;99.90;;;;;;5054893;28;20056;-76
2022/04/13 11:32:02;;;;;;;8.48;2.20;;;16.10;99.90;;;;;;5054908;28;20027;-76
2022/04/13 11:34:28;;;;;;;3.45;1.15;;;16.10;99.90;;;;;;5055406;28;20028;-76
2022/04/13 11:36:58;;;;;;;5.82;1.20;;;16.10;99.90;;;;;;5054852;28;20124;-76
2022/04/13 11:39:50;;;;;;;11.43;1.77;;;16.10;99.90;;;;;;5054939;28;20029;-76
2022/04/13 11:42:24;;;;;;;9.35;1.42;;;16.10;99.90;;;;;;5054707;28;20013;-76
2022/04/13 11:44:52;;;;;;;4.68;1.55;;;16.10;99.90;;;;;;5037024;28;20390;-76
2022/04/13 11:47:19;;;;;;;6.68;1.25;;;16.10;99.90;;;;;;5054727;28;20374;-76
2022/04/13 11:50:02;;;;;;;3.78;1.92;;;16.10;99.90;;;;;;5054565;28;20044;-76
2022/04/13 11:52:41;;;;;;;6.15;1.30;;;16.10;99.90;;;;;;5054767;28;20047;-75
2022/04/13 11:55:45;;;;;;;5.97;1.92;;;16.10;99.90;;;;;;5036672;28;20444;-75
2022/04/13 11:58:12;;;;;;;6.15;1.20;;;16.20;99.90;;;;;;5039422;28;20486;-76
2022/04/13 12:00:43;;;;;;;8.30;1.17;;;16.30;99.90;;;;;;5054609;28;20029;-76
2022/04/13 12:03:14;;;;;;;3.13;0.55;;;16.40;99.90;;;;;;5054282;28;20028;-76
2022/04/13 12:05:42;;;;;;;7.57;1.23;;;17.00;99.90;;;;;;5054470;28;20155;-76
2022/04/13 12:08:17;;;;;;;3.60;0.80;;;16.50;99.90;;;;;;5036310;28;20042;-76
2022/04/13 12:10:47;;;;;;;3.97;0.75;;;16.40;99.90;;;;;;5036191;28;20399;-76
2022/04/13 12:13:13;;;;;;;6.75;1.20;;;16.40;99.90;;;;;;5036107;28;20033;-76
2022/04/13 12:15:47;;;;;;;6.35;1.15;;;16.20;99.90;;;;;;5036197;28;20032;-76
2022/04/13 12:18:13;;;;;;;6.15;1.40;;;16.20;99.90;;;;;;5053865;28;20025;-76
2022/04/13 12:20:39;;;;;;;7.72;1.10;;;16.30;99.90;;;;;;5053757;28;20382;-76
2022/04/13 12:23:17;;;;;;;6.75;2.10;;;16.30;99.90;;;;;;5055159;28;20059;-78
2022/04/13 12:25:43;;;;;;;5.50;1.75;;;16.30;99.90;;;;;;5055282;28;20032;-78
2022/04/13 12:28:12;;;;;;;4.32;1.50;;;16.40;99.90;;;;;;5055014;28;20020;-78
2022/04/13 12:30:38;;;;;;;6.90;1.92;;;16.60;99.90;;;;;;5056444;28;20025;-78
2022/04/13 12:33:16;;;;;;;6.50;1.63;;;16.70;99.90;;;;;;5055508;28;20021;-78
2022/04/13 12:35:47;;;;;;;8.88;1.55;;;16.80;99.90;;;;;;5037489;28;20048;-78
2022/04/13 12:38:24;;;;;;;4.65;1.40;;;17.00;99.90;;;;;;5055114;28;20033;-78
2022/04/13 12:41:01;;;;;;;5.57;1.70;;;17.20;99.90;;;;;;5055792;28;20028;-78
2022/04/13 12:43:27;;;;;;;10.00;2.42;;;17.30;99.90;;;;;;5037211;28;20055;-77
2022/04/13 12:45:53;;;;;;;5.82;1.77;;;17.30;99.90;;;;;;5055383;28;20032;-78
2022/04/13 12:48:24;;;;;;;7.88;2.05;;;17.30;99.90;;;;;;5054886;28;20100;-78